Time;durP1;ratioP1;P1;durP2;ratioP2;P2;SDS_P1;SDS_P2;PMS_P1;PMS_P2;Temp;Humidity;BMP_temperature;BMP_pressure;BME280_temperature;BME280_humidity;BME280_pressure;Samples;Min_cycle;Max_cycle;Signal;HPM_P1;HPM_P2
2023/06/29 14:54:59;;;;;;;;;16.00;13.00;;;;;-146.67;32.38;73593.63;5139153;27;61856;-81
2023/06/29 14:57:25;;;;;;;;;14.67;13.67;;;;;-146.67;32.55;73591.63;5140751;27;61830;-84
2023/06/29 14:59:51;;;;;;;;;16.67;15.00;;;;;-146.67;32.85;73587.63;5139543;27;62311;-83
2023/06/29 15:02:16;;;;;;;;;11.33;11.00;;;;;-146.67;33.21;73597.63;5138071;27;65130;-85
2023/06/29 15:04:42;;;;;;;;;16.33;12.33;;;;;-146.67;33.61;73617.56;5132847;27;62012;-82
2023/06/29 15:07:07;;;;;;;;;15.00;12.00;;;;;-146.67;33.72;73613.59;5117893;27;61906;-81
2023/06/29 15:09:33;;;;;;;;;15.00;11.67;;;;;-146.67;33.53;73609.59;5120636;27;61973;-84
2023/06/29 15:12:01;;;;;;;;;12.67;12.33;;;;;-146.67;33.20;73569.66;5138518;27;64798;-84
2023/06/29 15:14:27;;;;;;;;;13.50;12.00;;;;;-146.67;33.25;73507.78;5134374;27;62149;-80
2023/06/29 15:16:53;;;;;;;;;22.00;13.75;;;;;-146.67;34.28;73529.75;5118812;27;61858;-83
2023/06/29 15:19:19;;;;;;;;;16.67;13.00;;;;;-146.67;33.86;73519.78;5117196;27;61761;-79
2023/06/29 15:21:44;;;;;;;;;16.75;15.50;;;;;-146.67;34.50;73587.63;5117122;27;64726;-79
2023/06/29 15:24:10;;;;;;;;;14.50;14.00;;;;;-146.67;34.96;73649.50;5117500;27;61691;-80
2023/06/29 15:27:06;;;;;;;;;12.00;11.00;;;;;-146.67;35.67;73701.41;5110121;27;62178;-78
2023/06/29 15:29:35;;;;;;;;;19.00;17.00;;;;;-146.67;36.08;73751.31;5075502;28;61956;-79
2023/06/29 15:32:01;;;;;;;;;16.33;12.00;;;;;-146.67;36.37;73785.25;5077879;27;62125;-80
2023/06/29 15:34:27;;;;;;;;;13.33;11.67;;;;;-146.67;36.42;73795.22;5077998;27;62128;-77
2023/06/29 15:36:52;;;;;;;;;11.67;11.00;;;;;-146.67;36.71;73837.16;5103528;27;61911;-84
2023/06/29 15:39:18;;;;;;;;;13.33;10.00;;;;;-146.67;37.01;73859.09;5078602;27;61936;-80
2023/06/29 15:41:43;;;;;;;;;16.33;7.00;;;;;-146.67;37.50;73893.03;5094638;27;64425;-82
2023/06/29 15:44:08;;;;;;;;;12.67;9.67;;;;;-146.67;38.04;73913.00;5078803;27;61918;-80
2023/06/29 15:46:39;;;;;;;;;6.33;6.33;;;;;-146.67;37.82;73911.00;5078377;27;61808;-80
2023/06/29 15:49:05;;;;;;;;;7.00;6.00;;;;;-146.67;37.96;73903.00;5095585;27;61988;-81
2023/06/29 15:51:30;;;;;;;;;6.00;4.67;;;;;-146.67;37.69;73915.00;5094401;27;63460;-80
2023/06/29 15:53:55;;;;;;;;;6.33;4.67;;;;;-146.67;38.12;73926.97;5077764;27;61976;-81
2023/06/29 15:56:21;;;;;;;;;6.33;4.00;;;;;-146.67;37.74;73924.97;5078500;27;61957;-79
2023/06/29 15:58:46;;;;;;;;;4.67;4.67;;;;;-146.67;37.81;73915.00;5078324;27;61875;-81
2023/06/29 16:01:12;;;;;;;;;7.00;4.67;;;;;-146.67;37.62;73911.00;5078068;27;64543;-77
2023/06/29 16:03:37;;;;;;;;;8.67;5.67;;;;;-146.67;37.44;73920.97;5080540;27;62149;-80
2023/06/29 16:06:03;;;;;;;;;4.67;4.67;;;;;-146.67;37.47;73913.00;5070586;28;61983;-78
2023/06/29 16:08:28;;;;;;;;;4.67;4.67;;;;;-146.67;37.57;73915.00;5082905;27;61968;-79
2023/06/29 16:10:54;;;;;;;;;4.00;4.00;;;;;-146.67;37.50;73926.97;5082594;27;63667;-78
2023/06/29 16:13:20;;;;;;;;;6.33;5.00;;;;;-146.67;37.52;73940.94;5083037;27;61897;-78
2023/06/29 16:15:45;;;;;;;;;2.00;1.00;;;;;-146.67;37.81;73942.94;5088770;27;61829;-79
2023/06/29 16:18:11;;;;;;;;;3.00;2.00;;;;;-146.67;37.97;73940.94;5102365;27;62106;-77
2023/06/29 16:20:41;;;;;;;;;6.75;5.50;;;;;-146.67;38.40;73928.97;5086175;27;63561;-77
2023/06/29 16:23:06;;;;;;;;;5.75;5.75;;;;;-146.67;38.07;73915.00;5102935;27;61954;-78
2023/06/29 16:25:31;;;;;;;;;4.33;4.33;;;;;-146.67;37.76;73897.03;5103064;27;61912;-79
2023/06/29 16:27:57;;;;;;;;;6.75;6.75;;;;;-146.67;38.08;73901.03;5104892;27;62045;-79
2023/06/29 16:30:22;;;;;;;;;10.00;6.00;;;;;-146.67;38.03;73920.97;5102617;27;63653;-78
2023/06/29 16:32:48;;;;;;;;;7.75;7.00;;;;;-146.67;37.90;73924.97;5103620;27;61931;-80
2023/06/29 16:35:13;;;;;;;;;7.00;6.67;;;;;-146.67;38.04;73946.94;5103202;27;62299;-79
2023/06/29 16:37:40;;;;;;;;;9.67;7.00;;;;;-146.67;38.15;73952.91;5104258;27;62466;-89
2023/06/29 16:40:07;;;;;;;;;2.50;2.00;;;;;-146.67;38.06;73956.91;5102553;27;64749;-86
2023/06/29 16:42:33;;;;;;;;;7.25;6.25;;;;;-146.67;38.34;73968.88;5120546;27;62009;-88
2023/06/29 16:44:58;;;;;;;;;5.25;4.75;;;;;-146.67;38.21;73956.91;5120338;27;61997;-87
2023/06/29 16:47:24;;;;;;;;;5.00;5.00;;;;;-146.67;38.17;73958.91;5104128;27;61880;-88
2023/06/29 16:49:49;;;;;;;;;5.00;3.67;;;;;-146.67;37.48;73962.91;5119966;27;64631;-88
2023/06/29 16:52:15;;;;;;;;;3.00;3.00;;;;;-146.67;37.44;73962.91;5102985;27;61856;-88
2023/06/29 16:54:40;;;;;;;;;1.00;1.00;;;;;-146.67;36.79;73940.94;5104179;27;62162;-88
2023/06/29 16:57:06;;;;;;;;;3.33;2.00;;;;;-146.67;36.85;73948.94;5104375;27;61727;-88
2023/06/29 16:59:31;;;;;;;;;6.50;3.75;;;;;-146.67;36.63;73930.97;5102325;27;63358;-88
2023/06/29 17:01:56;;;;;;;;;4.25;3.00;;;;;-146.67;36.48;73936.94;5104220;27;61687;-88
2023/06/29 17:04:24;;;;;;;;;2.67;2.33;;;;;-146.67;36.76;73924.97;5120325;27;62120;-88
2023/06/29 17:06:50;;;;;;;;;5.50;5.50;;;;;-146.67;36.60;73905.00;5104823;27;61883;-89
2023/06/29 17:09:15;;;;;;;;;2.67;2.33;;;;;-146.67;36.48;73893.03;5102147;27;63562;-88
2023/06/29 17:11:41;;;;;;;;;3.33;2.00;;;;;-146.67;36.71;73911.00;5104578;27;61777;-88
2023/06/29 17:14:06;;;;;;;;;3.00;3.00;;;;;-146.67;36.29;73895.03;5119945;27;62262;-87
2023/06/29 17:16:31;;;;;;;;;3.67;2.67;;;;;-146.67;36.26;73863.09;5118862;27;62028;-88
2023/06/29 17:18:57;;;;;;;;;4.33;4.00;;;;;-146.67;35.86;73827.16;5118759;27;63873;-87
2023/06/29 17:21:22;;;;;;;;;4.00;4.00;;;;;-146.67;35.77;73821.19;5103000;27;61912;-88
2023/06/29 17:23:52;;;;;;;;;5.00;4.00;;;;;-146.67;35.87;73827.16;5102474;27;61881;-87
2023/06/29 17:26:17;;;;;;;;;6.00;5.00;;;;;-146.67;35.63;73811.19;5104385;27;61672;-88
2023/06/29 17:28:43;;;;;;;;;4.00;3.00;;;;;-146.67;36.11;73833.16;5102434;27;64437;-87
2023/06/29 17:31:08;;;;;;;;;7.75;7.75;;;;;-146.67;36.17;73849.13;5119471;27;62083;-87
2023/06/29 17:33:33;;;;;;;;;7.75;7.00;;;;;-146.67;36.00;73833.16;5103427;27;61835;-87
2023/06/29 17:35:59;;;;;;;;;8.00;7.75;;;;;-146.67;35.88;73825.16;5102612;27;61821;-88
2023/06/29 17:38:24;;;;;;;;;6.75;6.50;;;;;-146.67;36.04;73801.22;5101667;27;63440;-88
2023/06/29 17:40:49;;;;;;;;;10.00;7.00;;;;;-146.67;35.50;73749.31;5116325;27;61995;-87
2023/06/29 17:43:44;;;;;;;;;8.50;8.00;;;;;-146.67;35.34;73737.34;5081459;27;61854;-87
2023/06/29 17:46:10;;;;;;;;;7.25;6.50;;;;;-146.67;35.25;73733.34;5039501;28;62075;-88
2023/06/29 17:48:35;;;;;;;;;6.33;6.00;;;;;-146.67;35.53;73787.25;5039359;28;63904;-88
2023/06/29 17:51:15;;;;;;;;;11.50;11.50;;;;;-146.67;36.10;73813.19;5039984;28;61994;-88
2023/06/29 17:53:41;;;;;;;;;9.50;9.50;;;;;-146.67;36.27;73835.16;5039983;28;62044;-88
2023/06/29 17:56:06;;;;;;;;;12.00;12.00;;;;;-146.67;36.50;73865.09;5023594;28;61778;-87
2023/06/29 17:58:32;;;;;;;;;9.50;9.50;;;;;-146.67;36.61;73899.03;5023179;28;64877;-87
2023/06/29 18:00:57;;;;;;;;;10.00;8.00;;;;;-146.67;36.79;73922.97;5023097;28;61857;-87
2023/06/29 18:03:22;;;;;;;;;6.25;5.50;;;;;-146.67;37.33;73948.94;5040334;28;61785;-88
2023/06/29 18:05:48;;;;;;;;;10.75;10.75;;;;;-146.67;37.10;73970.88;5042384;28;62418;-85
2023/06/29 18:08:13;;;;;;;;;6.75;6.75;;;;;-146.67;37.61;73998.84;5041704;28;64878;-85
2023/06/29 18:10:38;;;;;;;;;7.50;6.50;;;;;-146.67;37.00;74016.78;5042639;28;61968;-89
2023/06/29 18:13:04;;;;;;;;;7.25;6.50;;;;;-146.67;37.59;74032.75;5042527;28;61813;-87
2023/06/29 18:15:32;;;;;;;;;7.00;7.00;;;;;-146.67;37.44;74048.75;5059709;28;61884;-86
2023/06/29 18:17:57;;;;;;;;;7.75;7.25;;;;;-146.67;37.99;74064.72;5042311;28;63458;-87
2023/06/29 18:20:22;;;;;;;;;10.25;8.25;;;;;-146.67;37.82;74072.69;5058242;28;62103;-85
2023/06/29 18:22:48;;;;;;;;;6.00;6.00;;;;;-146.67;38.00;74072.69;5075387;27;61989;-85
2023/06/29 18:25:16;;;;;;;;;7.00;7.00;;;;;-146.67;38.24;74082.69;5102371;27;62070;-87
2023/06/29 18:27:42;;;;;;;;;8.25;6.50;;;;;-146.67;38.11;74098.66;5101283;27;63512;-82
2023/06/29 18:30:08;;;;;;;;;4.50;4.00;;;;;-146.67;38.35;74110.63;5100579;27;61972;-80
2023/06/29 18:32:33;;;;;;;;;9.00;7.00;;;;;-146.67;38.26;74100.63;5101044;27;61784;-81
2023/06/29 18:34:59;;;;;;;;;12.25;7.25;;;;;-146.67;38.49;74110.63;5100673;27;62053;-81
2023/06/29 18:37:24;;;;;;;;;10.00;8.00;;;;;-146.67;38.67;74112.63;5100405;27;63620;-79
2023/06/29 18:39:50;;;;;;;;;7.75;7.75;;;;;-146.67;38.88;74142.56;5100496;27;62220;-82
2023/06/29 18:42:17;;;;;;;;;7.50;7.50;;;;;-146.67;39.01;74146.56;5112813;27;61955;-83
2023/06/29 18:44:43;;;;;;;;;6.00;5.00;;;;;-146.67;38.80;74162.53;5111413;27;61829;-77
2023/06/29 18:47:11;;;;;;;;;5.50;5.00;;;;;-146.67;39.06;74176.50;5112748;27;61966;-77
2023/06/29 18:49:38;;;;;;;;;3.25;3.25;;;;;-146.67;39.13;74184.47;5105041;27;61799;-84
2023/06/29 18:52:06;;;;;;;;;9.00;8.00;;;;;-146.67;39.46;74192.47;5101182;27;61905;-88
2023/06/29 18:54:35;;;;;;;;;6.00;5.00;;;;;-146.67;39.12;74212.44;5101577;27;61894;-85
2023/06/29 18:57:04;;;;;;;;;4.00;3.75;;;;;-146.67;38.84;74224.41;5091109;27;63666;-83
2023/06/29 18:59:44;;;;;;;;;4.00;4.00;;;;;-146.67;39.17;74228.41;5105334;27;62117;-89
2023/06/29 19:02:09;;;;;;;;;6.67;5.00;;;;;-146.67;39.25;74238.38;5099787;27;61932;-88
2023/06/29 19:04:35;;;;;;;;;3.25;3.25;;;;;-146.67;39.74;74276.31;5101702;27;61994;-83
2023/06/29 19:07:00;;;;;;;;;3.25;3.25;;;;;-146.67;39.89;74286.28;5102985;27;61967;-83
2023/06/29 19:09:27;;;;;;;;;7.00;6.00;;;;;-146.67;39.51;74290.28;5101240;27;61784;-84
2023/06/29 19:11:53;;;;;;;;;3.25;3.25;;;;;-146.67;39.95;74298.28;5101369;27;61895;-86
2023/06/29 19:14:18;;;;;;;;;6.00;6.00;;;;;-146.67;39.99;74312.25;5103426;27;61851;-83
2023/06/29 19:16:44;;;;;;;;;9.75;8.75;;;;;-146.67;40.39;74314.25;5100289;27;65030;-82
2023/06/29 19:19:09;;;;;;;;;11.75;11.25;;;;;-146.67;40.47;74314.25;5102281;27;62156;-86
2023/06/29 19:21:35;;;;;;;;;10.00;9.50;;;;;-146.67;40.21;74314.25;5101278;27;62091;-84
2023/06/29 19:24:01;;;;;;;;;7.00;4.75;;;;;-146.67;40.08;74310.25;5100366;27;62302;-85
2023/06/29 19:26:27;;;;;;;;;6.75;5.75;;;;;-146.67;40.43;74296.28;5104064;27;64418;-85
2023/06/29 19:28:53;;;;;;;;;4.00;4.00;;;;;-146.67;40.28;74304.25;5103362;27;61933;-86
2023/06/29 19:31:20;;;;;;;;;4.00;4.00;;;;;-146.67;40.11;74304.25;5111001;27;61839;-87
2023/06/29 19:33:45;;;;;;;;;4.33;4.33;;;;;-146.67;40.30;74292.28;5104653;27;61870;-84
2023/06/29 19:36:11;;;;;;;;;4.50;3.00;;;;;-146.67;40.21;74304.25;5108216;27;65053;-87
2023/06/29 19:38:36;;;;;;;;;2.33;2.33;;;;;-146.67;40.03;74302.25;5107140;27;61916;-86
2023/06/29 19:41:02;;;;;;;;;3.75;3.00;;;;;-146.67;40.47;74308.25;5115720;27;62014;-84
2023/06/29 19:43:28;;;;;;;;;3.50;3.50;;;;;-146.67;40.46;74314.25;5111312;27;61938;-84
2023/06/29 19:45:53;;;;;;;;;3.50;2.00;;;;;-146.67;40.54;74314.25;5114472;27;63377;-84
2023/06/29 19:48:19;;;;;;;;;4.00;1.75;;;;;-146.67;40.46;74314.25;5122151;27;62194;-84
2023/06/29 19:50:44;;;;;;;;;4.50;2.50;;;;;-146.67;40.51;74308.25;5123884;27;62049;-84
2023/06/29 19:53:10;;;;;;;;;3.50;2.00;;;;;-146.67;41.06;74324.22;5111906;27;62306;-85
2023/06/29 19:55:35;;;;;;;;;3.50;1.25;;;;;-146.67;41.23;74344.19;5105882;27;64782;-86
2023/06/29 19:58:02;;;;;;;;;4.25;4.25;;;;;-146.67;41.19;74346.19;5115193;27;61891;-87
2023/06/29 20:00:30;;;;;;;;;3.50;2.50;;;;;-146.67;41.17;74356.16;5112879;27;61816;-86
2023/06/29 20:02:56;;;;;;;;;1.25;1.25;;;;;-146.67;41.65;74380.13;5092127;27;62163;-83
2023/06/29 20:05:22;;;;;;;;;1.50;0.00;;;;;-146.67;41.17;74382.13;5110681;27;64863;-84
2023/06/29 20:07:47;;;;;;;;;0.75;0.75;;;;;-146.67;41.75;74408.06;5120790;27;62194;-86
2023/06/29 20:10:12;;;;;;;;;0.00;0.00;;;;;-146.67;41.88;74414.06;5119377;27;61923;-77
2023/06/29 20:12:38;;;;;;;;;0.00;0.00;;;;;-146.67;42.06;74426.03;5114854;27;61882;-85
2023/06/29 20:15:05;;;;;;;;;0.50;0.00;;;;;-146.67;42.07;74430.03;5113558;27;63588;-84
2023/06/29 20:17:30;;;;;;;;;0.00;0.00;;;;;-146.67;42.59;74459.97;5112331;27;62181;-82
2023/06/29 20:19:56;;;;;;;;;1.00;1.00;;;;;-146.67;42.56;74459.97;5103170;27;62213;-80
2023/06/29 20:22:21;;;;;;;;;1.00;1.00;;;;;-146.67;42.87;74469.97;5104550;27;62096;-80
2023/06/29 20:24:50;;;;;;;;;1.00;1.00;;;;;-146.67;42.80;74471.97;5102316;27;63853;-82
2023/06/29 20:27:15;;;;;;;;;0.00;0.00;;;;;-146.67;42.72;74471.97;5094167;27;62066;-82
2023/06/29 20:29:41;;;;;;;;;1.00;1.00;;;;;-146.67;43.16;74483.94;5096091;27;62053;-82
2023/06/29 20:32:06;;;;;;;;;0.00;0.00;;;;;-146.67;42.71;74491.94;5092485;27;62118;-80
2023/06/29 20:34:32;;;;;;;;;0.50;0.50;;;;;-146.67;42.88;74483.94;5092297;27;62291;-80
2023/06/29 20:36:57;;;;;;;;;0.00;0.00;;;;;-146.67;43.21;74495.91;5095341;27;62231;-79
2023/06/29 20:39:22;;;;;;;;;1.00;1.00;;;;;-146.67;42.80;74503.91;5098531;27;62842;-81
2023/06/29 20:41:51;;;;;;;;;0.00;0.00;;;;;-146.67;43.42;74505.91;5096355;27;61740;-82
2023/06/29 20:44:18;;;;;;;;;0.00;0.00;;;;;-146.67;43.38;74523.88;5092060;27;63976;-85
2023/06/29 20:46:46;;;;;;;;;0.00;0.00;;;;;-146.67;43.30;74519.88;5094797;27;61899;-84
2023/06/29 20:49:11;;;;;;;;;0.00;0.00;;;;;-146.67;43.11;74535.84;5094163;27;61845;-82
2023/06/29 20:51:39;;;;;;;;;0.25;0.25;;;;;-146.67;43.63;74533.84;5098352;27;61946;-80
2023/06/29 20:54:05;;;;;;;;;0.00;0.00;;;;;-146.67;43.92;74539.84;5101172;27;63624;-79
2023/06/29 20:56:30;;;;;;;;;0.00;0.00;;;;;-146.67;43.62;74551.81;5099442;27;61853;-78
2023/06/29 20:58:55;;;;;;;;;0.00;0.00;;;;;-146.67;43.48;74555.81;5094436;27;61999;-78
2023/06/29 21:01:21;;;;;;;;;0.00;0.00;;;;;-146.67;43.72;74553.81;5091173;27;62222;-77
2023/06/29 21:03:47;;;;;;;;;0.00;0.00;;;;;-146.67;44.00;74563.78;5094881;27;61983;-78
2023/06/29 21:06:12;;;;;;;;;0.00;0.00;;;;;-146.67;43.72;74571.78;5089264;27;62130;-76
2023/06/29 21:08:38;;;;;;;;;0.00;0.00;;;;;-146.67;43.95;74587.75;5092703;27;61883;-81
2023/06/29 21:11:04;;;;;;;;;1.00;0.00;;;;;-146.67;43.53;74577.78;5104346;27;62061;-85
2023/06/29 21:13:29;;;;;;;;;0.50;0.50;;;;;-146.67;43.79;74569.78;5108052;27;64698;-78
2023/06/29 21:15:55;;;;;;;;;0.00;0.00;;;;;-146.67;44.07;74601.72;5095523;27;61958;-78
2023/06/29 21:18:20;;;;;;;;;0.00;0.00;;;;;-146.67;43.89;74601.72;5094240;27;61832;-78
2023/06/29 21:20:46;;;;;;;;;0.00;0.00;;;;;-146.67;44.40;74615.72;5109349;27;61869;-78
2023/06/29 21:23:12;;;;;;;;;0.00;0.00;;;;;-146.67;44.35;74613.72;5088706;27;64769;-79
2023/06/29 21:25:38;;;;;;;;;0.00;0.00;;;;;-146.67;44.25;74605.72;5092664;27;61936;-80
2023/06/29 21:28:04;;;;;;;;;0.00;0.00;;;;;-146.67;43.89;74597.75;5093855;27;61620;-79
2023/06/29 21:30:34;;;;;;;;;0.00;0.00;;;;;-146.67;44.13;74617.69;5094248;27;61750;-79
2023/06/29 21:33:00;;;;;;;;;0.00;0.00;;;;;-146.67;44.37;74621.69;5093225;27;62381;-80
2023/06/29 21:35:25;;;;;;;;;0.00;0.00;;;;;-146.67;44.40;74625.69;5103734;27;61933;-80
2023/06/29 21:37:51;;;;;;;;;0.00;0.00;;;;;-146.67;44.31;74619.69;5121808;27;62299;-80
2023/06/29 21:40:17;;;;;;;;;0.00;0.00;;;;;-146.67;43.74;74615.72;5111927;27;61984;-80
2023/06/29 21:42:43;;;;;;;;;0.25;0.25;;;;;-146.67;44.78;74637.66;5101843;27;63556;-79
2023/06/29 21:45:08;;;;;;;;;0.00;0.00;;;;;-146.67;44.36;74641.66;5084691;27;61769;-80
2023/06/29 21:47:34;;;;;;;;;1.00;0.00;;;;;-146.67;44.50;74631.69;5101893;27;61820;-80
2023/06/29 21:49:59;;;;;;;;;0.00;0.00;;;;;-146.67;44.14;74635.66;5083596;27;61937;-80
2023/06/29 21:52:25;;;;;;;;;1.00;1.00;;;;;-146.67;44.62;74627.69;5097847;27;64489;-80
2023/06/29 21:54:51;;;;;;;;;3.50;2.75;;;;;-146.67;44.32;74627.69;5110775;27;61990;-80
2023/06/29 21:57:16;;;;;;;;;2.25;2.00;;;;;-146.67;44.11;74625.69;5081684;27;61790;-79
2023/06/29 21:59:41;;;;;;;;;7.25;5.25;;;;;-146.67;44.70;74637.66;5083316;28;62060;-79
2023/06/29 22:02:07;;;;;;;;;18.75;15.00;;;;;-146.67;44.60;74649.66;5084435;27;63554;-80
2023/06/29 22:04:32;;;;;;;;;41.00;30.75;;;;;-146.67;45.23;74659.63;5118344;27;62083;-80
2023/06/29 22:06:57;;;;;;;;;27.25;21.50;;;;;-146.67;45.05;74655.63;5101536;27;62369;-80
2023/06/29 22:09:23;;;;;;;;;15.75;12.25;;;;;-146.67;44.89;74647.66;5119206;27;62087;-80
2023/06/29 22:11:48;;;;;;;;;15.50;10.75;;;;;-146.67;45.03;74641.66;5098514;27;61944;-79
2023/06/29 22:14:14;;;;;;;;;9.25;8.50;;;;;-146.67;44.96;74635.66;5081497;28;61944;-80
2023/06/29 22:16:39;;;;;;;;;5.00;4.00;;;;;-146.67;44.98;74639.66;5082653;27;61769;-80
2023/06/29 22:19:09;;;;;;;;;1.25;1.25;;;;;-146.67;44.86;74637.66;5082767;27;61966;-79
2023/06/29 22:21:36;;;;;;;;;2.50;2.50;;;;;-146.67;45.61;74659.63;5080424;27;64163;-80
2023/06/29 22:24:03;;;;;;;;;6.25;2.50;;;;;-146.67;45.46;74659.63;5082512;27;61761;-79
2023/06/29 22:26:28;;;;;;;;;8.00;4.00;;;;;-146.67;45.67;74663.63;5082441;27;61992;-80
2023/06/29 22:28:54;;;;;;;;;2.00;2.00;;;;;-146.67;45.60;74657.63;5081527;27;61981;-79
2023/06/29 22:31:19;;;;;;;;;4.25;4.25;;;;;-146.67;45.72;74645.66;5081971;28;62781;-80
2023/06/29 22:33:45;;;;;;;;;5.25;4.00;;;;;-146.67;45.34;74623.69;5095429;27;62052;-80
2023/06/29 22:36:11;;;;;;;;;8.50;6.00;;;;;-146.67;45.50;74629.69;5101397;27;61939;-79
2023/06/29 22:38:36;;;;;;;;;11.25;7.75;;;;;-146.67;44.97;74627.69;5103135;27;61770;-79
2023/06/29 22:41:04;;;;;;;;;9.25;8.75;;;;;-146.67;45.27;74635.66;5102723;27;62878;-80
2023/06/29 22:43:30;;;;;;;;;11.25;10.25;;;;;-146.67;46.15;74661.63;5103413;27;61909;-80
2023/06/29 22:45:55;;;;;;;;;9.00;9.00;;;;;-146.67;46.22;74665.63;5100422;27;61749;-79
2023/06/29 22:48:21;;;;;;;;;7.75;6.25;;;;;-146.67;46.43;74665.63;5080585;27;62110;-80
2023/06/29 22:50:46;;;;;;;;;13.50;13.50;;;;;-146.67;46.48;74661.63;5080121;28;63636;-79
2023/06/29 22:53:11;;;;;;;;;7.50;7.50;;;;;-146.67;46.78;74667.63;5082171;28;61759;-79
2023/06/29 22:55:37;;;;;;;;;32.75;23.50;;;;;-146.67;46.75;74673.59;5095233;27;62305;-79
2023/06/29 22:58:02;;;;;;;;;12.50;12.50;;;;;-146.67;47.11;74677.59;5119004;27;61827;-80
2023/06/29 23:00:28;;;;;;;;;16.25;14.50;;;;;-146.67;46.87;74679.59;5118124;27;64908;-80
2023/06/29 23:02:53;;;;;;;;;18.00;16.00;;;;;-146.67;46.88;74675.59;5100821;27;61781;-80
2023/06/29 23:05:19;;;;;;;;;13.75;13.75;;;;;-146.67;46.58;74679.59;5118323;27;61992;-79
2023/06/29 23:07:44;;;;;;;;;10.25;7.00;;;;;-146.67;46.96;74685.59;5102444;27;61787;-80
2023/06/29 23:10:12;;;;;;;;;9.75;6.25;;;;;-146.67;46.76;74685.59;5109323;27;62393;-80
2023/06/29 23:12:37;;;;;;;;;9.00;6.00;;;;;-146.67;46.85;74685.59;5119849;27;61902;-81
2023/06/29 23:15:03;;;;;;;;;4.75;4.75;;;;;-146.67;46.82;74671.59;5101908;27;61852;-81
2023/06/29 23:17:29;;;;;;;;;4.00;4.00;;;;;-146.67;46.63;74669.63;5106233;27;61888;-80
2023/06/29 23:19:54;;;;;;;;;5.00;3.50;;;;;-146.67;46.71;74659.63;5103864;27;64876;-81
2023/06/29 23:22:21;;;;;;;;;2.25;2.00;;;;;-146.67;46.72;74661.63;5104706;27;61243;-81
2023/06/29 23:24:47;;;;;;;;;1.00;1.00;;;;;-146.67;46.46;74669.63;5106361;27;62071;-81
2023/06/29 23:27:13;;;;;;;;;6.00;5.00;;;;;-146.67;46.60;74673.59;5106356;27;62473;-81
2023/06/29 23:29:38;;;;;;;;;7.00;6.00;;;;;-146.67;46.61;74669.63;5104216;27;63368;-80
2023/06/29 23:32:04;;;;;;;;;4.25;3.00;;;;;-146.67;46.54;74659.63;5104294;27;61928;-81
2023/06/29 23:34:29;;;;;;;;;2.50;2.00;;;;;-146.67;46.29;74667.63;5102649;27;61911;-81
2023/06/29 23:36:54;;;;;;;;;2.00;2.00;;;;;-146.67;46.51;74665.63;5104617;27;62056;-81
2023/06/29 23:39:20;;;;;;;;;3.75;1.75;;;;;-146.67;46.24;74665.63;5105302;27;61786;-81
2023/06/29 23:41:46;;;;;;;;;2.25;2.00;;;;;-146.67;46.29;74669.63;5104484;27;62018;-81
2023/06/29 23:44:11;;;;;;;;;1.75;1.75;;;;;-146.67;46.25;74663.63;5104499;27;61863;-81
2023/06/29 23:46:44;;;;;;;;;3.75;3.00;;;;;-146.67;46.56;74679.59;5104788;27;62377;-81
2023/06/29 23:49:12;;;;;;;;;3.00;3.00;;;;;-146.67;46.66;74687.56;5102946;27;63929;-81
2023/06/29 23:51:38;;;;;;;;;5.00;5.00;;;;;-146.67;46.26;74691.56;5105806;27;61604;-81
2023/06/29 23:54:05;;;;;;;;;4.75;3.50;;;;;-146.67;46.76;74693.56;5105037;27;61910;-81
2023/06/29 23:56:32;;;;;;;;;5.50;3.75;;;;;-146.67;46.47;74693.56;5104566;27;62031;-81
2023/06/29 23:58:59;;;;;;;;;3.75;2.75;;;;;-146.67;46.16;74683.59;5103529;27;63559;-81
